sensor_id;sensor_type;location;lat;lon;timestamp;temperature;humidity
30381;DHT22;17169;50.966;11.038;2024-03-02T00:02:50;8.20;99.90
30381;DHT22;17169;50.966;11.038;2024-03-02T00:05:52;8.20;99.90
30381;DHT22;17169;50.966;11.038;2024-03-02T00:08:58;8.20;99.90
30381;DHT22;17169;50.966;11.038;2024-03-02T00:12:01;8.10;99.90
30381;DHT22;17169;50.966;11.038;2024-03-02T00:15:05;8.10;99.90
30381;DHT22;17169;50.966;11.038;2024-03-02T00:18:12;8.10;99.90
30381;DHT22;17169;50.966;11.038;2024-03-02T00:21:15;8.10;99.90
30381;DHT22;17169;50.966;11.038;2024-03-02T00:24:24;8.00;99.90
30381;DHT22;17169;50.966;11.038;2024-03-02T00:27:29;8.00;99.90
30381;DHT22;17169;50.966;11.038;2024-03-02T00:30:57;8.00;99.90
30381;DHT22;17169;50.966;11.038;2024-03-02T00:34:03;7.90;99.90
30381;DHT22;17169;50.966;11.038;2024-03-02T00:37:07;7.90;99.90
30381;DHT22;17169;50.966;11.038;2024-03-02T00:40:10;7.90;99.90
30381;DHT22;17169;50.966;11.038;2024-03-02T00:43:39;7.90;99.90
30381;DHT22;17169;50.966;11.038;2024-03-02T00:46:43;7.90;99.90
30381;DHT22;17169;50.966;11.038;2024-03-02T00:49:47;7.90;99.90
30381;DHT22;17169;50.966;11.038;2024-03-02T00:52:49;7.90;99.90
30381;DHT22;17169;50.966;11.038;2024-03-02T00:55:52;7.90;99.90
30381;DHT22;17169;50.966;11.038;2024-03-02T00:58:55;7.90;99.90
30381;DHT22;17169;50.966;11.038;2024-03-02T01:01:57;7.90;99.90
30381;DHT22;17169;50.966;11.038;2024-03-02T01:05:01;7.80;99.90
30381;DHT22;17169;50.966;11.038;2024-03-02T01:08:04;7.90;99.90
30381;DHT22;17169;50.966;11.038;2024-03-02T01:11:07;7.90;99.90
30381;DHT22;17169;50.966;11.038;2024-03-02T01:14:09;7.90;99.90
30381;DHT22;17169;50.966;11.038;2024-03-02T01:17:12;7.90;99.90
30381;DHT22;17169;50.966;11.038;2024-03-02T01:20:16;7.90;99.90
30381;DHT22;17169;50.966;11.038;2024-03-02T01:23:19;8.00;99.90
30381;DHT22;17169;50.966;11.038;2024-03-02T01:26:21;8.00;99.90
30381;DHT22;17169;50.966;11.038;2024-03-02T01:29:24;8.00;99.90
30381;DHT22;17169;50.966;11.038;2024-03-02T01:32:26;8.00;99.90
30381;DHT22;17169;50.966;11.038;2024-03-02T01:35:30;8.00;99.90
30381;DHT22;17169;50.966;11.038;2024-03-02T01:38:32;7.90;99.90
30381;DHT22;17169;50.966;11.038;2024-03-02T01:41:35;7.90;99.90
30381;DHT22;17169;50.966;11.038;2024-03-02T01:44:37;7.90;99.90
30381;DHT22;17169;50.966;11.038;2024-03-02T01:47:40;7.90;99.90
30381;DHT22;17169;50.966;11.038;2024-03-02T01:50:44;7.90;99.90
30381;DHT22;17169;50.966;11.038;2024-03-02T01:53:46;7.90;99.90
30381;DHT22;17169;50.966;11.038;2024-03-02T01:56:48;7.90;99.90
30381;DHT22;17169;50.966;11.038;2024-03-02T01:59:51;7.90;99.90
30381;DHT22;17169;50.966;11.038;2024-03-02T02:02:54;7.90;99.90
30381;DHT22;17169;50.966;11.038;2024-03-02T02:05:57;8.00;99.90
30381;DHT22;17169;50.966;11.038;2024-03-02T02:09:00;8.00;99.90
30381;DHT22;17169;50.966;11.038;2024-03-02T02:12:04;8.00;99.90
30381;DHT22;17169;50.966;11.038;2024-03-02T02:15:25;8.10;99.90
30381;DHT22;17169;50.966;11.038;2024-03-02T02:18:27;8.10;99.90
30381;DHT22;17169;50.966;11.038;2024-03-02T02:21:31;8.10;99.90
30381;DHT22;17169;50.966;11.038;2024-03-02T02:24:33;8.20;99.90
30381;DHT22;17169;50.966;11.038;2024-03-02T02:27:36;8.20;99.90
30381;DHT22;17169;50.966;11.038;2024-03-02T02:30:38;8.20;99.90
30381;DHT22;17169;50.966;11.038;2024-03-02T02:33:41;8.30;99.90
30381;DHT22;17169;50.966;11.038;2024-03-02T02:36:44;8.30;99.90
30381;DHT22;17169;50.966;11.038;2024-03-02T02:39:47;8.30;99.90
30381;DHT22;17169;50.966;11.038;2024-03-02T02:42:49;8.30;99.90
30381;DHT22;17169;50.966;11.038;2024-03-02T02:45:53;8.30;99.90
30381;DHT22;17169;50.966;11.038;2024-03-02T02:48:55;8.30;99.90
30381;DHT22;17169;50.966;11.038;2024-03-02T02:51:59;8.30;99.90
30381;DHT22;17169;50.966;11.038;2024-03-02T02:55:03;8.30;99.90
30381;DHT22;17169;50.966;11.038;2024-03-02T02:58:05;8.30;99.90
30381;DHT22;17169;50.966;11.038;2024-03-02T03:01:08;8.30;99.90
30381;DHT22;17169;50.966;11.038;2024-03-02T03:04:10;8.30;99.90
30381;DHT22;17169;50.966;11.038;2024-03-02T03:07:14;8.30;99.90
30381;DHT22;17169;50.966;11.038;2024-03-02T03:10:17;8.40;99.90
30381;DHT22;17169;50.966;11.038;2024-03-02T03:13:23;8.40;99.90
30381;DHT22;17169;50.966;11.038;2024-03-02T03:16:25;8.40;99.90
30381;DHT22;17169;50.966;11.038;2024-03-02T03:19:27;8.40;99.90
30381;DHT22;17169;50.966;11.038;2024-03-02T03:22:31;8.40;99.90
30381;DHT22;17169;50.966;11.038;2024-03-02T03:25:33;8.40;99.90
30381;DHT22;17169;50.966;11.038;2024-03-02T03:28:36;8.30;99.90
30381;DHT22;17169;50.966;11.038;2024-03-02T03:31:38;8.40;99.90
30381;DHT22;17169;50.966;11.038;2024-03-02T03:34:41;8.40;99.90
30381;DHT22;17169;50.966;11.038;2024-03-02T03:37:44;8.40;99.90
30381;DHT22;17169;50.966;11.038;2024-03-02T03:40:47;8.40;99.90
30381;DHT22;17169;50.966;11.038;2024-03-02T03:43:49;8.40;99.90
30381;DHT22;17169;50.966;11.038;2024-03-02T03:46:53;8.40;99.90
30381;DHT22;17169;50.966;11.038;2024-03-02T03:49:55;8.40;99.90
30381;DHT22;17169;50.966;11.038;2024-03-02T03:52:59;8.40;99.90
30381;DHT22;17169;50.966;11.038;2024-03-02T03:56:01;8.40;99.90
30381;DHT22;17169;50.966;11.038;2024-03-02T03:59:03;8.40;99.90
30381;DHT22;17169;50.966;11.038;2024-03-02T04:02:06;8.40;99.90
30381;DHT22;17169;50.966;11.038;2024-03-02T04:05:09;8.40;99.90
30381;DHT22;17169;50.966;11.038;2024-03-02T04:08:13;8.40;99.90
30381;DHT22;17169;50.966;11.038;2024-03-02T04:11:15;8.40;99.90
30381;DHT22;17169;50.966;11.038;2024-03-02T04:14:17;8.40;99.90
30381;DHT22;17169;50.966;11.038;2024-03-02T04:17:20;8.40;99.90
30381;DHT22;17169;50.966;11.038;2024-03-02T04:20:22;8.40;99.90
30381;DHT22;17169;50.966;11.038;2024-03-02T04:23:26;8.30;99.90
30381;DHT22;17169;50.966;11.038;2024-03-02T04:26:28;8.40;99.90
30381;DHT22;17169;50.966;11.038;2024-03-02T04:29:31;8.30;99.90
30381;DHT22;17169;50.966;11.038;2024-03-02T04:32:33;8.30;99.90
30381;DHT22;17169;50.966;11.038;2024-03-02T04:35:37;8.20;99.90
30381;DHT22;17169;50.966;11.038;2024-03-02T04:38:40;8.20;99.90
30381;DHT22;17169;50.966;11.038;2024-03-02T04:41:43;8.20;99.90
30381;DHT22;17169;50.966;11.038;2024-03-02T04:44:45;8.10;99.90
30381;DHT22;17169;50.966;11.038;2024-03-02T04:47:47;8.10;99.90
30381;DHT22;17169;50.966;11.038;2024-03-02T04:50:50;8.10;99.90
30381;DHT22;17169;50.966;11.038;2024-03-02T04:53:54;8.10;99.90
30381;DHT22;17169;50.966;11.038;2024-03-02T04:56:56;8.10;99.90
30381;DHT22;17169;50.966;11.038;2024-03-02T04:59:59;8.10;99.90
30381;DHT22;17169;50.966;11.038;2024-03-02T05:03:02;8.10;99.90
30381;DHT22;17169;50.966;11.038;2024-03-02T05:06:04;8.10;99.90
30381;DHT22;17169;50.966;11.038;2024-03-02T05:09:08;8.10;99.90
30381;DHT22;17169;50.966;11.038;2024-03-02T05:12:11;8.20;99.90
30381;DHT22;17169;50.966;11.038;2024-03-02T05:15:41;8.20;99.90
30381;DHT22;17169;50.966;11.038;2024-03-02T05:18:44;8.20;99.90
30381;DHT22;17169;50.966;11.038;2024-03-02T05:21:46;8.20;99.90
30381;DHT22;17169;50.966;11.038;2024-03-02T05:24:51;8.20;99.90
30381;DHT22;17169;50.966;11.038;2024-03-02T05:27:53;8.20;99.90
30381;DHT22;17169;50.966;11.038;2024-03-02T05:30:55;8.20;99.90
30381;DHT22;17169;50.966;11.038;2024-03-02T05:33:58;8.20;99.90
30381;DHT22;17169;50.966;11.038;2024-03-02T05:37:00;8.20;99.90
30381;DHT22;17169;50.966;11.038;2024-03-02T05:40:05;8.20;99.90
30381;DHT22;17169;50.966;11.038;2024-03-02T05:43:07;8.30;99.90
30381;DHT22;17169;50.966;11.038;2024-03-02T05:46:10;8.20;99.90
30381;DHT22;17169;50.966;11.038;2024-03-02T05:49:12;8.20;99.90
30381;DHT22;17169;50.966;11.038;2024-03-02T05:52:15;8.30;99.90
30381;DHT22;17169;50.966;11.038;2024-03-02T05:55:19;8.30;99.90
30381;DHT22;17169;50.966;11.038;2024-03-02T05:58:21;8.40;99.90
30381;DHT22;17169;50.966;11.038;2024-03-02T06:01:34;8.50;99.90
30381;DHT22;17169;50.966;11.038;2024-03-02T06:04:37;8.50;99.90
30381;DHT22;17169;50.966;11.038;2024-03-02T06:07:39;8.50;99.90
30381;DHT22;17169;50.966;11.038;2024-03-02T06:10:43;8.50;99.90
30381;DHT22;17169;50.966;11.038;2024-03-02T06:13:45;8.60;99.90
30381;DHT22;17169;50.966;11.038;2024-03-02T06:16:48;8.60;99.90
30381;DHT22;17169;50.966;11.038;2024-03-02T06:19:50;8.60;99.90
30381;DHT22;17169;50.966;11.038;2024-03-02T06:22:53;8.60;99.90
30381;DHT22;17169;50.966;11.038;2024-03-02T06:25:57;8.60;99.90
30381;DHT22;17169;50.966;11.038;2024-03-02T06:28:59;8.70;99.90
30381;DHT22;17169;50.966;11.038;2024-03-02T06:32:03;8.70;99.90
30381;DHT22;17169;50.966;11.038;2024-03-02T06:35:06;8.80;99.90
30381;DHT22;17169;50.966;11.038;2024-03-02T06:38:11;8.80;99.90
30381;DHT22;17169;50.966;11.038;2024-03-02T06:41:14;8.80;99.90
30381;DHT22;17169;50.966;11.038;2024-03-02T06:44:17;8.80;99.90
30381;DHT22;17169;50.966;11.038;2024-03-02T06:47:19;8.90;99.90
30381;DHT22;17169;50.966;11.038;2024-03-02T06:50:22;8.90;99.90
30381;DHT22;17169;50.966;11.038;2024-03-02T06:53:24;8.90;99.90
30381;DHT22;17169;50.966;11.038;2024-03-02T06:56:28;9.00;99.90
30381;DHT22;17169;50.966;11.038;2024-03-02T06:59:31;9.10;99.90
30381;DHT22;17169;50.966;11.038;2024-03-02T07:02:34;9.10;99.90
30381;DHT22;17169;50.966;11.038;2024-03-02T07:05:37;9.20;99.90
30381;DHT22;17169;50.966;11.038;2024-03-02T07:08:39;9.20;99.90
30381;DHT22;17169;50.966;11.038;2024-03-02T07:11:43;9.20;99.90
30381;DHT22;17169;50.966;11.038;2024-03-02T07:14:45;9.20;99.90
30381;DHT22;17169;50.966;11.038;2024-03-02T07:18:12;9.30;99.90
30381;DHT22;17169;50.966;11.038;2024-03-02T07:21:15;9.40;99.90
30381;DHT22;17169;50.966;11.038;2024-03-02T07:24:17;9.40;99.90
30381;DHT22;17169;50.966;11.038;2024-03-02T07:27:21;9.50;99.90
30381;DHT22;17169;50.966;11.038;2024-03-02T07:30:23;9.60;99.90
30381;DHT22;17169;50.966;11.038;2024-03-02T07:33:26;9.60;99.90
30381;DHT22;17169;50.966;11.038;2024-03-02T07:36:28;9.70;99.90
30381;DHT22;17169;50.966;11.038;2024-03-02T07:39:31;9.70;99.90
30381;DHT22;17169;50.966;11.038;2024-03-02T07:42:34;9.80;99.90
30381;DHT22;17169;50.966;11.038;2024-03-02T07:45:37;9.80;99.90
30381;DHT22;17169;50.966;11.038;2024-03-02T07:48:39;9.90;99.90
30381;DHT22;17169;50.966;11.038;2024-03-02T07:51:42;10.00;99.90
30381;DHT22;17169;50.966;11.038;2024-03-02T07:54:44;10.00;99.90
30381;DHT22;17169;50.966;11.038;2024-03-02T07:57:48;10.10;99.90
30381;DHT22;17169;50.966;11.038;2024-03-02T08:00:51;10.10;99.90
30381;DHT22;17169;50.966;11.038;2024-03-02T08:03:53;10.20;99.90
30381;DHT22;17169;50.966;11.038;2024-03-02T08:06:56;10.20;99.90
30381;DHT22;17169;50.966;11.038;2024-03-02T08:09:58;10.20;99.90
30381;DHT22;17169;50.966;11.038;2024-03-02T08:13:02;10.30;99.90
30381;DHT22;17169;50.966;11.038;2024-03-02T08:16:05;10.40;99.90
30381;DHT22;17169;50.966;11.038;2024-03-02T08:19:10;10.40;99.90
30381;DHT22;17169;50.966;11.038;2024-03-02T08:22:13;10.50;99.90
30381;DHT22;17169;50.966;11.038;2024-03-02T08:25:15;10.60;99.90
30381;DHT22;17169;50.966;11.038;2024-03-02T08:28:19;10.70;99.90
30381;DHT22;17169;50.966;11.038;2024-03-02T08:31:21;10.90;99.90
30381;DHT22;17169;50.966;11.038;2024-03-02T08:34:24;11.00;99.90
30381;DHT22;17169;50.966;11.038;2024-03-02T08:37:26;11.20;99.90
30381;DHT22;17169;50.966;11.038;2024-03-02T08:40:29;11.40;99.90
30381;DHT22;17169;50.966;11.038;2024-03-02T08:43:33;11.60;99.90
30381;DHT22;17169;50.966;11.038;2024-03-02T08:46:35;11.80;99.90
30381;DHT22;17169;50.966;11.038;2024-03-02T08:49:38;11.90;99.90
30381;DHT22;17169;50.966;11.038;2024-03-02T08:52:40;11.90;99.90
30381;DHT22;17169;50.966;11.038;2024-03-02T08:55:44;12.10;99.90
30381;DHT22;17169;50.966;11.038;2024-03-02T08:58:48;12.30;99.90
30381;DHT22;17169;50.966;11.038;2024-03-02T09:01:50;12.40;99.90
30381;DHT22;17169;50.966;11.038;2024-03-02T09:04:53;12.50;99.90
30381;DHT22;17169;50.966;11.038;2024-03-02T09:07:55;12.60;99.90
30381;DHT22;17169;50.966;11.038;2024-03-02T09:10:58;12.70;99.90
30381;DHT22;17169;50.966;11.038;2024-03-02T09:14:01;12.90;99.90
30381;DHT22;17169;50.966;11.038;2024-03-02T09:17:04;12.90;99.90
30381;DHT22;17169;50.966;11.038;2024-03-02T09:20:07;13.00;99.90
30381;DHT22;17169;50.966;11.038;2024-03-02T09:23:10;13.10;99.90
30381;DHT22;17169;50.966;11.038;2024-03-02T09:26:12;13.20;99.90
30381;DHT22;17169;50.966;11.038;2024-03-02T09:29:16;13.20;99.90
30381;DHT22;17169;50.966;11.038;2024-03-02T09:32:19;13.20;99.90
30381;DHT22;17169;50.966;11.038;2024-03-02T09:35:21;13.20;99.90
30381;DHT22;17169;50.966;11.038;2024-03-02T09:38:23;13.20;99.90
30381;DHT22;17169;50.966;11.038;2024-03-02T09:41:26;13.30;99.90
30381;DHT22;17169;50.966;11.038;2024-03-02T09:44:30;13.30;99.90
30381;DHT22;17169;50.966;11.038;2024-03-02T09:47:32;13.30;99.90
30381;DHT22;17169;50.966;11.038;2024-03-02T09:50:35;13.30;99.90
30381;DHT22;17169;50.966;11.038;2024-03-02T09:53:37;13.40;99.90
30381;DHT22;17169;50.966;11.038;2024-03-02T09:56:40;13.50;99.90
30381;DHT22;17169;50.966;11.038;2024-03-02T09:59:44;13.60;99.90
30381;DHT22;17169;50.966;11.038;2024-03-02T10:02:47;13.70;99.90
30381;DHT22;17169;50.966;11.038;2024-03-02T10:05:50;13.70;99.90
30381;DHT22;17169;50.966;11.038;2024-03-02T10:08:53;13.70;99.90
30381;DHT22;17169;50.966;11.038;2024-03-02T10:12:04;13.70;99.90
30381;DHT22;17169;50.966;11.038;2024-03-02T10:15:08;13.70;99.90
30381;DHT22;17169;50.966;11.038;2024-03-02T10:18:12;13.70;99.90
30381;DHT22;17169;50.966;11.038;2024-03-02T10:21:15;13.80;99.90
30381;DHT22;17169;50.966;11.038;2024-03-02T10:24:17;13.80;99.90
30381;DHT22;17169;50.966;11.038;2024-03-02T10:27:27;13.90;99.90
30381;DHT22;17169;50.966;11.038;2024-03-02T10:30:32;14.00;99.90
30381;DHT22;17169;50.966;11.038;2024-03-02T10:33:35;14.10;99.90
30381;DHT22;17169;50.966;11.038;2024-03-02T10:36:40;14.20;99.90
30381;DHT22;17169;50.966;11.038;2024-03-02T10:39:43;14.20;99.90
30381;DHT22;17169;50.966;11.038;2024-03-02T10:42:48;14.20;99.50
30381;DHT22;17169;50.966;11.038;2024-03-02T10:45:53;14.20;99.90
30381;DHT22;17169;50.966;11.038;2024-03-02T10:48:56;14.30;99.90
30381;DHT22;17169;50.966;11.038;2024-03-02T10:52:00;14.40;99.60
30381;DHT22;17169;50.966;11.038;2024-03-02T10:55:03;14.50;99.30
30381;DHT22;17169;50.966;11.038;2024-03-02T10:58:07;14.50;98.70
30381;DHT22;17169;50.966;11.038;2024-03-02T11:01:15;14.60;98.40
30381;DHT22;17169;50.966;11.038;2024-03-02T11:04:19;14.70;98.50
30381;DHT22;17169;50.966;11.038;2024-03-02T11:07:23;14.80;98.70
30381;DHT22;17169;50.966;11.038;2024-03-02T11:10:28;14.90;98.40
30381;DHT22;17169;50.966;11.038;2024-03-02T11:13:33;15.10;98.30
30381;DHT22;17169;50.966;11.038;2024-03-02T11:16:38;15.20;98.20
30381;DHT22;17169;50.966;11.038;2024-03-02T11:19:43;15.30;98.50
30381;DHT22;17169;50.966;11.038;2024-03-02T11:22:46;15.30;98.10
30381;DHT22;17169;50.966;11.038;2024-03-02T11:25:48;15.40;97.50
30381;DHT22;17169;50.966;11.038;2024-03-02T11:28:51;15.40;97.50
30381;DHT22;17169;50.966;11.038;2024-03-02T11:32:01;15.50;97.50
30381;DHT22;17169;50.966;11.038;2024-03-02T11:35:04;15.50;96.90
30381;DHT22;17169;50.966;11.038;2024-03-02T11:38:09;15.40;96.00
30381;DHT22;17169;50.966;11.038;2024-03-02T11:41:12;15.40;95.30
30381;DHT22;17169;50.966;11.038;2024-03-02T11:44:15;15.40;95.90
30381;DHT22;17169;50.966;11.038;2024-03-02T11:47:19;15.50;96.30
30381;DHT22;17169;50.966;11.038;2024-03-02T11:50:29;15.50;96.20
30381;DHT22;17169;50.966;11.038;2024-03-02T11:53:31;15.50;96.50
30381;DHT22;17169;50.966;11.038;2024-03-02T11:56:34;15.60;96.40
30381;DHT22;17169;50.966;11.038;2024-03-02T11:59:36;15.60;96.00
30381;DHT22;17169;50.966;11.038;2024-03-02T12:02:41;15.70;95.10
30381;DHT22;17169;50.966;11.038;2024-03-02T12:05:49;15.70;95.20
30381;DHT22;17169;50.966;11.038;2024-03-02T12:08:52;15.70;95.20
30381;DHT22;17169;50.966;11.038;2024-03-02T12:12:02;15.70;94.90
30381;DHT22;17169;50.966;11.038;2024-03-02T12:15:06;15.70;95.40
30381;DHT22;17169;50.966;11.038;2024-03-02T12:18:11;15.90;95.10
30381;DHT22;17169;50.966;11.038;2024-03-02T12:21:13;15.90;95.00
30381;DHT22;17169;50.966;11.038;2024-03-02T12:24:16;16.00;92.90
30381;DHT22;17169;50.966;11.038;2024-03-02T12:27:18;16.10;93.50
30381;DHT22;17169;50.966;11.038;2024-03-02T12:30:22;16.20;92.70
30381;DHT22;17169;50.966;11.038;2024-03-02T12:33:26;16.30;91.60
30381;DHT22;17169;50.966;11.038;2024-03-02T12:36:30;16.30;92.20
30381;DHT22;17169;50.966;11.038;2024-03-02T12:39:32;16.40;91.60
30381;DHT22;17169;50.966;11.038;2024-03-02T12:42:35;16.40;90.70
30381;DHT22;17169;50.966;11.038;2024-03-02T12:45:37;16.50;91.20
30381;DHT22;17169;50.966;11.038;2024-03-02T12:48:41;16.50;90.90
30381;DHT22;17169;50.966;11.038;2024-03-02T12:51:43;16.50;90.40
30381;DHT22;17169;50.966;11.038;2024-03-02T12:54:49;16.50;90.70
30381;DHT22;17169;50.966;11.038;2024-03-02T12:57:51;16.50;91.30
30381;DHT22;17169;50.966;11.038;2024-03-02T13:01:06;16.50;91.70
30381;DHT22;17169;50.966;11.038;2024-03-02T13:04:10;16.50;92.00
30381;DHT22;17169;50.966;11.038;2024-03-02T13:07:12;16.50;92.10
30381;DHT22;17169;50.966;11.038;2024-03-02T13:10:15;16.50;92.20
30381;DHT22;17169;50.966;11.038;2024-03-02T13:13:18;16.50;92.50
30381;DHT22;17169;50.966;11.038;2024-03-02T13:16:21;16.50;92.30
30381;DHT22;17169;50.966;11.038;2024-03-02T13:19:24;16.50;92.40
30381;DHT22;17169;50.966;11.038;2024-03-02T13:22:29;16.50;92.40
30381;DHT22;17169;50.966;11.038;2024-03-02T13:25:32;16.40;92.50
30381;DHT22;17169;50.966;11.038;2024-03-02T13:28:35;16.40;92.40
30381;DHT22;17169;50.966;11.038;2024-03-02T13:31:37;16.40;92.20
30381;DHT22;17169;50.966;11.038;2024-03-02T13:34:42;16.40;92.70
30381;DHT22;17169;50.966;11.038;2024-03-02T13:37:45;16.40;92.90
30381;DHT22;17169;50.966;11.038;2024-03-02T13:40:48;16.40;93.30
30381;DHT22;17169;50.966;11.038;2024-03-02T13:43:52;16.40;93.30
30381;DHT22;17169;50.966;11.038;2024-03-02T13:46:54;16.50;93.30
30381;DHT22;17169;50.966;11.038;2024-03-02T13:49:58;16.50;93.10
30381;DHT22;17169;50.966;11.038;2024-03-02T13:53:00;16.50;93.10
30381;DHT22;17169;50.966;11.038;2024-03-02T13:56:04;16.60;93.00
30381;DHT22;17169;50.966;11.038;2024-03-02T13:59:07;16.60;93.10
30381;DHT22;17169;50.966;11.038;2024-03-02T14:02:11;16.60;93.00
30381;DHT22;17169;50.966;11.038;2024-03-02T14:05:15;16.70;93.10
30381;DHT22;17169;50.966;11.038;2024-03-02T14:08:18;16.70;92.70
30381;DHT22;17169;50.966;11.038;2024-03-02T14:11:20;16.70;92.60
30381;DHT22;17169;50.966;11.038;2024-03-02T14:14:23;16.70;92.90
30381;DHT22;17169;50.966;11.038;2024-03-02T14:17:25;16.80;93.10
30381;DHT22;17169;50.966;11.038;2024-03-02T14:20:29;16.80;93.10
30381;DHT22;17169;50.966;11.038;2024-03-02T14:23:31;16.90;93.20
30381;DHT22;17169;50.966;11.038;2024-03-02T14:26:34;17.00;93.20
30381;DHT22;17169;50.966;11.038;2024-03-02T14:29:38;17.00;93.40
30381;DHT22;17169;50.966;11.038;2024-03-02T14:32:41;17.00;92.70
30381;DHT22;17169;50.966;11.038;2024-03-02T14:35:45;17.00;92.50
30381;DHT22;17169;50.966;11.038;2024-03-02T14:38:48;17.10;92.90
30381;DHT22;17169;50.966;11.038;2024-03-02T14:41:50;17.20;92.40
30381;DHT22;17169;50.966;11.038;2024-03-02T14:44:52;17.20;92.40
30381;DHT22;17169;50.966;11.038;2024-03-02T14:47:55;17.30;91.40
30381;DHT22;17169;50.966;11.038;2024-03-02T14:51:02;17.20;91.40
30381;DHT22;17169;50.966;11.038;2024-03-02T14:54:05;17.20;91.50
30381;DHT22;17169;50.966;11.038;2024-03-02T14:57:07;17.20;90.90
30381;DHT22;17169;50.966;11.038;2024-03-02T15:00:10;17.10;90.10
30381;DHT22;17169;50.966;11.038;2024-03-02T15:03:13;17.10;88.20
30381;DHT22;17169;50.966;11.038;2024-03-02T15:06:17;17.10;88.20
30381;DHT22;17169;50.966;11.038;2024-03-02T15:09:20;17.10;87.80
30381;DHT22;17169;50.966;11.038;2024-03-02T15:12:22;17.00;88.60
30381;DHT22;17169;50.966;11.038;2024-03-02T15:15:25;16.90;90.10
30381;DHT22;17169;50.966;11.038;2024-03-02T15:18:27;16.80;90.40
30381;DHT22;17169;50.966;11.038;2024-03-02T15:21:31;16.70;90.50
30381;DHT22;17169;50.966;11.038;2024-03-02T15:24:33;16.60;90.60
30381;DHT22;17169;50.966;11.038;2024-03-02T15:27:36;16.50;90.80
30381;DHT22;17169;50.966;11.038;2024-03-02T15:30:38;16.40;91.20
30381;DHT22;17169;50.966;11.038;2024-03-02T15:33:41;16.40;91.90
30381;DHT22;17169;50.966;11.038;2024-03-02T15:36:45;16.30;92.60
30381;DHT22;17169;50.966;11.038;2024-03-02T15:39:47;16.30;93.20
30381;DHT22;17169;50.966;11.038;2024-03-02T15:42:49;16.20;93.80
30381;DHT22;17169;50.966;11.038;2024-03-02T15:45:52;16.20;94.00
30381;DHT22;17169;50.966;11.038;2024-03-02T15:48:54;16.10;94.30
30381;DHT22;17169;50.966;11.038;2024-03-02T15:51:59;16.00;94.60
30381;DHT22;17169;50.966;11.038;2024-03-02T15:55:02;16.00;94.60
30381;DHT22;17169;50.966;11.038;2024-03-02T15:58:06;15.90;94.70
30381;DHT22;17169;50.966;11.038;2024-03-02T16:01:09;15.80;94.80
30381;DHT22;17169;50.966;11.038;2024-03-02T16:04:11;15.70;94.80
30381;DHT22;17169;50.966;11.038;2024-03-02T16:07:15;15.60;94.80
30381;DHT22;17169;50.966;11.038;2024-03-02T16:10:17;15.50;94.80
30381;DHT22;17169;50.966;11.038;2024-03-02T16:13:20;15.40;94.90
30381;DHT22;17169;50.966;11.038;2024-03-02T16:16:22;15.30;95.10
30381;DHT22;17169;50.966;11.038;2024-03-02T16:19:24;15.10;95.30
30381;DHT22;17169;50.966;11.038;2024-03-02T16:22:28;15.00;95.30
30381;DHT22;17169;50.966;11.038;2024-03-02T16:25:30;14.80;95.50
30381;DHT22;17169;50.966;11.038;2024-03-02T16:28:33;14.60;95.70
30381;DHT22;17169;50.966;11.038;2024-03-02T16:31:35;14.60;95.80
30381;DHT22;17169;50.966;11.038;2024-03-02T16:34:37;14.40;95.80
30381;DHT22;17169;50.966;11.038;2024-03-02T16:37:41;14.30;95.90
30381;DHT22;17169;50.966;11.038;2024-03-02T16:40:43;14.10;96.00
30381;DHT22;17169;50.966;11.038;2024-03-02T16:43:47;14.00;96.10
30381;DHT22;17169;50.966;11.038;2024-03-02T16:46:49;13.90;96.10
30381;DHT22;17169;50.966;11.038;2024-03-02T16:49:51;13.70;96.40
30381;DHT22;17169;50.966;11.038;2024-03-02T16:52:55;13.60;96.40
30381;DHT22;17169;50.966;11.038;2024-03-02T16:55:59;13.50;96.60
30381;DHT22;17169;50.966;11.038;2024-03-02T16:59:02;13.40;96.80
30381;DHT22;17169;50.966;11.038;2024-03-02T17:02:04;13.40;96.90
30381;DHT22;17169;50.966;11.038;2024-03-02T17:05:07;13.20;96.90
30381;DHT22;17169;50.966;11.038;2024-03-02T17:08:11;13.10;97.10
30381;DHT22;17169;50.966;11.038;2024-03-02T17:11:14;13.00;97.30
30381;DHT22;17169;50.966;11.038;2024-03-02T17:14:16;12.90;97.40
30381;DHT22;17169;50.966;11.038;2024-03-02T17:17:18;12.80;97.60
30381;DHT22;17169;50.966;11.038;2024-03-02T17:20:21;12.70;97.70
30381;DHT22;17169;50.966;11.038;2024-03-02T17:23:24;12.60;97.80
30381;DHT22;17169;50.966;11.038;2024-03-02T17:26:32;12.50;97.90
30381;DHT22;17169;50.966;11.038;2024-03-02T17:29:34;12.40;97.90
30381;DHT22;17169;50.966;11.038;2024-03-02T17:32:36;12.30;98.00
30381;DHT22;17169;50.966;11.038;2024-03-02T17:35:39;12.20;98.00
30381;DHT22;17169;50.966;11.038;2024-03-02T17:38:43;12.20;98.20
30381;DHT22;17169;50.966;11.038;2024-03-02T17:41:45;12.00;98.30
30381;DHT22;17169;50.966;11.038;2024-03-02T17:44:47;11.90;98.60
30381;DHT22;17169;50.966;11.038;2024-03-02T17:47:50;11.80;99.10
30381;DHT22;17169;50.966;11.038;2024-03-02T17:50:52;11.80;98.90
30381;DHT22;17169;50.966;11.038;2024-03-02T17:53:56;11.70;98.90
30381;DHT22;17169;50.966;11.038;2024-03-02T17:56:59;11.60;99.00
30381;DHT22;17169;50.966;11.038;2024-03-02T18:00:01;11.50;99.20
30381;DHT22;17169;50.966;11.038;2024-03-02T18:03:04;11.50;99.30
30381;DHT22;17169;50.966;11.038;2024-03-02T18:06:07;11.40;99.40
30381;DHT22;17169;50.966;11.038;2024-03-02T18:09:11;11.30;99.50
30381;DHT22;17169;50.966;11.038;2024-03-02T18:12:14;11.20;99.80
30381;DHT22;17169;50.966;11.038;2024-03-02T18:15:16;11.10;99.70
30381;DHT22;17169;50.966;11.038;2024-03-02T18:18:19;11.10;99.90
30381;DHT22;17169;50.966;11.038;2024-03-02T18:21:21;11.00;99.90
30381;DHT22;17169;50.966;11.038;2024-03-02T18:24:25;10.90;99.90
30381;DHT22;17169;50.966;11.038;2024-03-02T18:27:29;10.90;99.90
30381;DHT22;17169;50.966;11.038;2024-03-02T18:30:32;10.80;99.90
30381;DHT22;17169;50.966;11.038;2024-03-02T18:33:34;10.70;99.90
30381;DHT22;17169;50.966;11.038;2024-03-02T18:36:36;10.70;99.90
30381;DHT22;17169;50.966;11.038;2024-03-02T18:39:40;10.70;99.90
30381;DHT22;17169;50.966;11.038;2024-03-02T18:42:42;10.60;99.90
30381;DHT22;17169;50.966;11.038;2024-03-02T18:45:45;10.50;99.90
30381;DHT22;17169;50.966;11.038;2024-03-02T18:48:47;10.50;99.90
30381;DHT22;17169;50.966;11.038;2024-03-02T18:51:49;10.40;99.90
30381;DHT22;17169;50.966;11.038;2024-03-02T18:54:53;10.30;99.90
30381;DHT22;17169;50.966;11.038;2024-03-02T18:57:55;10.20;99.90
30381;DHT22;17169;50.966;11.038;2024-03-02T19:00:58;10.10;99.90
30381;DHT22;17169;50.966;11.038;2024-03-02T19:04:01;10.10;99.90
30381;DHT22;17169;50.966;11.038;2024-03-02T19:07:03;10.00;99.90
30381;DHT22;17169;50.966;11.038;2024-03-02T19:10:08;10.00;99.90